sensor_id;sensor_type;location;lat;lon;timestamp;P1;durP1;ratioP1;P2;durP2;ratioP2
20306;SDS011;10312;52.434;13.206;2022-12-11T00:00:06;18.67;;;11.05;;
20306;SDS011;10312;52.434;13.206;2022-12-11T00:02:34;17.80;;;10.85;;
20306;SDS011;10312;52.434;13.206;2022-12-11T00:05:01;19.58;;;10.80;;
20306;SDS011;10312;52.434;13.206;2022-12-11T00:07:27;17.77;;;10.85;;
20306;SDS011;10312;52.434;13.206;2022-12-11T00:09:54;19.30;;;10.88;;
20306;SDS011;10312;52.434;13.206;2022-12-11T00:12:21;18.20;;;11.55;;
20306;SDS011;10312;52.434;13.206;2022-12-11T00:14:47;19.60;;;11.07;;
20306;SDS011;10312;52.434;13.206;2022-12-11T00:17:14;20.05;;;12.27;;
20306;SDS011;10312;52.434;13.206;2022-12-11T00:19:41;20.90;;;12.43;;
20306;SDS011;10312;52.434;13.206;2022-12-11T00:22:08;20.92;;;12.35;;
20306;SDS011;10312;52.434;13.206;2022-12-11T00:24:34;18.98;;;11.68;;
20306;SDS011;10312;52.434;13.206;2022-12-11T00:27:01;20.33;;;11.52;;
20306;SDS011;10312;52.434;13.206;2022-12-11T00:29:28;18.42;;;11.27;;
20306;SDS011;10312;52.434;13.206;2022-12-11T00:31:55;19.13;;;11.80;;
20306;SDS011;10312;52.434;13.206;2022-12-11T00:34:22;20.15;;;11.77;;
20306;SDS011;10312;52.434;13.206;2022-12-11T00:36:48;21.63;;;12.15;;
20306;SDS011;10312;52.434;13.206;2022-12-11T00:39:15;21.30;;;12.13;;
20306;SDS011;10312;52.434;13.206;2022-12-11T00:41:42;21.10;;;12.77;;
20306;SDS011;10312;52.434;13.206;2022-12-11T00:44:09;20.20;;;11.55;;
20306;SDS011;10312;52.434;13.206;2022-12-11T00:46:36;22.33;;;13.02;;
20306;SDS011;10312;52.434;13.206;2022-12-11T00:49:02;25.33;;;13.73;;
20306;SDS011;10312;52.434;13.206;2022-12-11T00:51:29;27.48;;;15.73;;
20306;SDS011;10312;52.434;13.206;2022-12-11T00:53:56;27.80;;;15.82;;
20306;SDS011;10312;52.434;13.206;2022-12-11T00:56:23;22.15;;;13.57;;
20306;SDS011;10312;52.434;13.206;2022-12-11T00:58:50;22.80;;;14.05;;
20306;SDS011;10312;52.434;13.206;2022-12-11T01:01:18;20.50;;;13.07;;
20306;SDS011;10312;52.434;13.206;2022-12-11T01:03:50;25.52;;;13.55;;
20306;SDS011;10312;52.434;13.206;2022-12-11T01:06:18;24.00;;;13.50;;
20306;SDS011;10312;52.434;13.206;2022-12-11T01:08:47;20.20;;;12.35;;
20306;SDS011;10312;52.434;13.206;2022-12-11T01:11:34;21.60;;;12.25;;
20306;SDS011;10312;52.434;13.206;2022-12-11T01:14:01;23.48;;;13.02;;
20306;SDS011;10312;52.434;13.206;2022-12-11T01:16:28;21.35;;;12.80;;
20306;SDS011;10312;52.434;13.206;2022-12-11T01:18:55;20.58;;;12.90;;
20306;SDS011;10312;52.434;13.206;2022-12-11T01:21:23;19.98;;;12.80;;
20306;SDS011;10312;52.434;13.206;2022-12-11T01:23:50;23.23;;;13.73;;
20306;SDS011;10312;52.434;13.206;2022-12-11T01:26:17;21.63;;;12.90;;
20306;SDS011;10312;52.434;13.206;2022-12-11T01:28:44;22.92;;;12.38;;
20306;SDS011;10312;52.434;13.206;2022-12-11T01:31:12;19.48;;;12.32;;
20306;SDS011;10312;52.434;13.206;2022-12-11T01:33:39;21.40;;;12.68;;
20306;SDS011;10312;52.434;13.206;2022-12-11T01:36:11;21.13;;;12.48;;
20306;SDS011;10312;52.434;13.206;2022-12-11T01:38:39;20.50;;;12.60;;
20306;SDS011;10312;52.434;13.206;2022-12-11T01:41:06;25.00;;;13.95;;
20306;SDS011;10312;52.434;13.206;2022-12-11T01:43:33;21.63;;;12.32;;
20306;SDS011;10312;52.434;13.206;2022-12-11T01:46:00;23.65;;;12.95;;
20306;SDS011;10312;52.434;13.206;2022-12-11T01:48:30;20.05;;;12.43;;
20306;SDS011;10312;52.434;13.206;2022-12-11T01:51:00;22.73;;;13.27;;
20306;SDS011;10312;52.434;13.206;2022-12-11T01:53:30;21.70;;;12.48;;
20306;SDS011;10312;52.434;13.206;2022-12-11T01:55:59;22.55;;;12.05;;
20306;SDS011;10312;52.434;13.206;2022-12-11T01:58:28;23.33;;;13.13;;
20306;SDS011;10312;52.434;13.206;2022-12-11T02:00:58;21.92;;;13.23;;
20306;SDS011;10312;52.434;13.206;2022-12-11T02:03:25;23.13;;;12.73;;
20306;SDS011;10312;52.434;13.206;2022-12-11T02:05:52;21.42;;;12.40;;
20306;SDS011;10312;52.434;13.206;2022-12-11T02:08:19;22.13;;;12.95;;
20306;SDS011;10312;52.434;13.206;2022-12-11T02:11:00;20.30;;;12.45;;
20306;SDS011;10312;52.434;13.206;2022-12-11T02:16:17;20.35;;;12.23;;
20306;SDS011;10312;52.434;13.206;2022-12-11T02:21:23;23.75;;;13.68;;
20306;SDS011;10312;52.434;13.206;2022-12-11T02:27:10;21.60;;;12.95;;
20306;SDS011;10312;52.434;13.206;2022-12-11T02:29:50;23.33;;;13.27;;
20306;SDS011;10312;52.434;13.206;2022-12-11T02:32:38;22.10;;;13.07;;
20306;SDS011;10312;52.434;13.206;2022-12-11T02:35:18;19.95;;;12.57;;
20306;SDS011;10312;52.434;13.206;2022-12-11T02:37:55;21.67;;;12.73;;
20306;SDS011;10312;52.434;13.206;2022-12-11T02:40:24;21.88;;;12.98;;
20306;SDS011;10312;52.434;13.206;2022-12-11T02:42:53;20.25;;;12.73;;
20306;SDS011;10312;52.434;13.206;2022-12-11T02:45:22;22.20;;;13.02;;
20306;SDS011;10312;52.434;13.206;2022-12-11T02:47:49;21.33;;;13.15;;
20306;SDS011;10312;52.434;13.206;2022-12-11T02:50:17;19.98;;;12.80;;
20306;SDS011;10312;52.434;13.206;2022-12-11T02:52:46;22.63;;;13.07;;
20306;SDS011;10312;52.434;13.206;2022-12-11T02:55:14;21.10;;;12.95;;
20306;SDS011;10312;52.434;13.206;2022-12-11T02:57:46;20.85;;;12.75;;
20306;SDS011;10312;52.434;13.206;2022-12-11T03:00:14;24.02;;;13.00;;
20306;SDS011;10312;52.434;13.206;2022-12-11T03:02:42;20.27;;;12.30;;
20306;SDS011;10312;52.434;13.206;2022-12-11T03:05:10;20.63;;;12.52;;
20306;SDS011;10312;52.434;13.206;2022-12-11T03:07:39;20.33;;;13.65;;
20306;SDS011;10312;52.434;13.206;2022-12-11T03:10:09;22.00;;;13.10;;
20306;SDS011;10312;52.434;13.206;2022-12-11T03:12:37;21.30;;;13.02;;
20306;SDS011;10312;52.434;13.206;2022-12-11T03:15:07;20.05;;;12.50;;
20306;SDS011;10312;52.434;13.206;2022-12-11T03:17:39;21.02;;;14.07;;
20306;SDS011;10312;52.434;13.206;2022-12-11T03:20:25;21.33;;;12.98;;
20306;SDS011;10312;52.434;13.206;2022-12-11T03:23:11;22.15;;;12.90;;
20306;SDS011;10312;52.434;13.206;2022-12-11T03:25:45;21.95;;;13.85;;
20306;SDS011;10312;52.434;13.206;2022-12-11T03:28:14;22.08;;;12.98;;
20306;SDS011;10312;52.434;13.206;2022-12-11T03:30:42;22.08;;;12.57;;
20306;SDS011;10312;52.434;13.206;2022-12-11T03:33:44;21.05;;;13.02;;
20306;SDS011;10312;52.434;13.206;2022-12-11T03:36:09;24.45;;;13.63;;
20306;SDS011;10312;52.434;13.206;2022-12-11T03:38:55;20.05;;;12.68;;
20306;SDS011;10312;52.434;13.206;2022-12-11T03:41:25;19.73;;;13.10;;
20306;SDS011;10312;52.434;13.206;2022-12-11T03:43:53;22.52;;;12.93;;
20306;SDS011;10312;52.434;13.206;2022-12-11T03:46:22;22.95;;;12.93;;
20306;SDS011;10312;52.434;13.206;2022-12-11T03:48:53;20.63;;;12.65;;
20306;SDS011;10312;52.434;13.206;2022-12-11T03:51:22;21.77;;;12.30;;
20306;SDS011;10312;52.434;13.206;2022-12-11T03:53:49;21.17;;;12.73;;
20306;SDS011;10312;52.434;13.206;2022-12-11T03:56:17;21.63;;;14.10;;
20306;SDS011;10312;52.434;13.206;2022-12-11T03:58:45;21.15;;;12.88;;
20306;SDS011;10312;52.434;13.206;2022-12-11T04:01:12;22.48;;;13.40;;
20306;SDS011;10312;52.434;13.206;2022-12-11T04:03:39;19.38;;;12.07;;
20306;SDS011;10312;52.434;13.206;2022-12-11T04:06:05;18.95;;;12.70;;
20306;SDS011;10312;52.434;13.206;2022-12-11T04:08:32;21.92;;;12.82;;
20306;SDS011;10312;52.434;13.206;2022-12-11T04:11:01;21.00;;;12.70;;
20306;SDS011;10312;52.434;13.206;2022-12-11T04:13:47;19.98;;;12.68;;
20306;SDS011;10312;52.434;13.206;2022-12-11T04:16:33;22.92;;;12.88;;
20306;SDS011;10312;52.434;13.206;2022-12-11T04:19:00;20.27;;;12.95;;
20306;SDS011;10312;52.434;13.206;2022-12-11T04:21:45;18.88;;;12.48;;
20306;SDS011;10312;52.434;13.206;2022-12-11T04:24:30;20.35;;;12.52;;
20306;SDS011;10312;52.434;13.206;2022-12-11T04:26:57;20.00;;;12.95;;
20306;SDS011;10312;52.434;13.206;2022-12-11T04:29:24;19.98;;;12.82;;
20306;SDS011;10312;52.434;13.206;2022-12-11T04:31:51;19.63;;;12.55;;
20306;SDS011;10312;52.434;13.206;2022-12-11T04:34:17;21.20;;;12.73;;
20306;SDS011;10312;52.434;13.206;2022-12-11T04:36:44;19.25;;;11.95;;
20306;SDS011;10312;52.434;13.206;2022-12-11T04:39:11;21.27;;;13.05;;
20306;SDS011;10312;52.434;13.206;2022-12-11T04:41:37;20.25;;;12.93;;
20306;SDS011;10312;52.434;13.206;2022-12-11T04:44:06;22.40;;;12.48;;
20306;SDS011;10312;52.434;13.206;2022-12-11T04:46:34;20.55;;;12.52;;
20306;SDS011;10312;52.434;13.206;2022-12-11T04:49:01;18.83;;;12.18;;
20306;SDS011;10312;52.434;13.206;2022-12-11T04:51:27;18.80;;;12.48;;
20306;SDS011;10312;52.434;13.206;2022-12-11T04:53:54;22.00;;;12.35;;
20306;SDS011;10312;52.434;13.206;2022-12-11T04:56:21;20.73;;;12.40;;
20306;SDS011;10312;52.434;13.206;2022-12-11T04:58:48;21.13;;;12.82;;
20306;SDS011;10312;52.434;13.206;2022-12-11T05:01:19;20.20;;;13.15;;
20306;SDS011;10312;52.434;13.206;2022-12-11T05:03:47;22.08;;;12.48;;
20306;SDS011;10312;52.434;13.206;2022-12-11T05:06:15;20.98;;;12.55;;
20306;SDS011;10312;52.434;13.206;2022-12-11T05:08:42;21.98;;;13.45;;
20306;SDS011;10312;52.434;13.206;2022-12-11T05:11:10;19.15;;;12.02;;
20306;SDS011;10312;52.434;13.206;2022-12-11T05:13:38;20.52;;;12.55;;
20306;SDS011;10312;52.434;13.206;2022-12-11T05:16:06;21.50;;;13.20;;
20306;SDS011;10312;52.434;13.206;2022-12-11T05:18:34;19.52;;;12.35;;
20306;SDS011;10312;52.434;13.206;2022-12-11T05:21:02;23.42;;;12.88;;
20306;SDS011;10312;52.434;13.206;2022-12-11T05:23:30;18.70;;;11.85;;
20306;SDS011;10312;52.434;13.206;2022-12-11T05:25:58;21.70;;;12.90;;
20306;SDS011;10312;52.434;13.206;2022-12-11T05:28:26;18.13;;;11.73;;
20306;SDS011;10312;52.434;13.206;2022-12-11T05:30:58;19.30;;;12.27;;
20306;SDS011;10312;52.434;13.206;2022-12-11T05:33:27;19.30;;;12.57;;
20306;SDS011;10312;52.434;13.206;2022-12-11T05:35:54;19.90;;;12.55;;
20306;SDS011;10312;52.434;13.206;2022-12-11T05:38:20;21.35;;;13.13;;
20306;SDS011;10312;52.434;13.206;2022-12-11T05:40:55;21.83;;;12.80;;
20306;SDS011;10312;52.434;13.206;2022-12-11T05:43:23;22.67;;;12.73;;
20306;SDS011;10312;52.434;13.206;2022-12-11T05:45:50;21.73;;;11.63;;
20306;SDS011;10312;52.434;13.206;2022-12-11T05:48:17;24.02;;;12.82;;
20306;SDS011;10312;52.434;13.206;2022-12-11T05:50:44;20.27;;;12.13;;
20306;SDS011;10312;52.434;13.206;2022-12-11T05:53:11;19.73;;;12.15;;
20306;SDS011;10312;52.434;13.206;2022-12-11T05:55:37;22.00;;;12.60;;
20306;SDS011;10312;52.434;13.206;2022-12-11T05:58:04;24.15;;;13.73;;
20306;SDS011;10312;52.434;13.206;2022-12-11T06:00:31;20.77;;;12.48;;
20306;SDS011;10312;52.434;13.206;2022-12-11T06:03:01;20.95;;;12.13;;
20306;SDS011;10312;52.434;13.206;2022-12-11T06:05:28;19.58;;;12.85;;
20306;SDS011;10312;52.434;13.206;2022-12-11T06:07:55;20.80;;;12.23;;
20306;SDS011;10312;52.434;13.206;2022-12-11T06:10:22;19.50;;;12.55;;
20306;SDS011;10312;52.434;13.206;2022-12-11T06:12:48;22.30;;;12.52;;
20306;SDS011;10312;52.434;13.206;2022-12-11T06:15:15;21.17;;;12.68;;
20306;SDS011;10312;52.434;13.206;2022-12-11T06:17:42;22.33;;;12.73;;
20306;SDS011;10312;52.434;13.206;2022-12-11T06:20:09;22.25;;;12.77;;
20306;SDS011;10312;52.434;13.206;2022-12-11T06:22:36;20.77;;;12.68;;
20306;SDS011;10312;52.434;13.206;2022-12-11T06:25:03;23.60;;;13.15;;
20306;SDS011;10312;52.434;13.206;2022-12-11T06:27:30;21.42;;;12.02;;
20306;SDS011;10312;52.434;13.206;2022-12-11T06:29:56;23.08;;;13.35;;
20306;SDS011;10312;52.434;13.206;2022-12-11T06:32:23;20.52;;;13.10;;
20306;SDS011;10312;52.434;13.206;2022-12-11T06:34:50;20.65;;;12.68;;
20306;SDS011;10312;52.434;13.206;2022-12-11T06:37:16;21.27;;;13.57;;
20306;SDS011;10312;52.434;13.206;2022-12-11T06:39:43;25.30;;;13.35;;
20306;SDS011;10312;52.434;13.206;2022-12-11T06:42:10;23.45;;;12.57;;
20306;SDS011;10312;52.434;13.206;2022-12-11T06:44:36;24.33;;;13.88;;
20306;SDS011;10312;52.434;13.206;2022-12-11T06:47:03;26.17;;;14.50;;
20306;SDS011;10312;52.434;13.206;2022-12-11T06:49:30;24.83;;;13.07;;
20306;SDS011;10312;52.434;13.206;2022-12-11T06:51:57;22.17;;;13.30;;
20306;SDS011;10312;52.434;13.206;2022-12-11T06:54:24;24.00;;;14.40;;
20306;SDS011;10312;52.434;13.206;2022-12-11T06:56:52;24.23;;;14.00;;
20306;SDS011;10312;52.434;13.206;2022-12-11T06:59:19;23.65;;;13.85;;
20306;SDS011;10312;52.434;13.206;2022-12-11T07:01:46;24.73;;;14.55;;
20306;SDS011;10312;52.434;13.206;2022-12-11T07:04:13;25.25;;;14.40;;
20306;SDS011;10312;52.434;13.206;2022-12-11T07:06:39;23.48;;;13.95;;
20306;SDS011;10312;52.434;13.206;2022-12-11T07:09:06;26.20;;;14.15;;
20306;SDS011;10312;52.434;13.206;2022-12-11T07:11:33;27.58;;;14.73;;
20306;SDS011;10312;52.434;13.206;2022-12-11T07:14:00;26.80;;;14.18;;
20306;SDS011;10312;52.434;13.206;2022-12-11T07:16:26;24.58;;;14.52;;
20306;SDS011;10312;52.434;13.206;2022-12-11T07:18:53;23.85;;;14.43;;
20306;SDS011;10312;52.434;13.206;2022-12-11T07:21:20;22.92;;;13.40;;
20306;SDS011;10312;52.434;13.206;2022-12-11T07:23:48;25.80;;;14.73;;
20306;SDS011;10312;52.434;13.206;2022-12-11T07:26:16;24.70;;;14.15;;
20306;SDS011;10312;52.434;13.206;2022-12-11T07:28:44;24.83;;;14.18;;
20306;SDS011;10312;52.434;13.206;2022-12-11T07:31:12;26.42;;;14.48;;
20306;SDS011;10312;52.434;13.206;2022-12-11T07:33:40;29.90;;;15.63;;
20306;SDS011;10312;52.434;13.206;2022-12-11T07:36:08;25.35;;;14.13;;
20306;SDS011;10312;52.434;13.206;2022-12-11T07:38:36;26.45;;;14.80;;
20306;SDS011;10312;52.434;13.206;2022-12-11T07:41:03;25.77;;;14.38;;
20306;SDS011;10312;52.434;13.206;2022-12-11T07:43:31;24.42;;;14.40;;
20306;SDS011;10312;52.434;13.206;2022-12-11T07:46:02;26.23;;;14.55;;
20306;SDS011;10312;52.434;13.206;2022-12-11T07:48:31;24.70;;;13.27;;
20306;SDS011;10312;52.434;13.206;2022-12-11T07:51:34;26.52;;;14.45;;
20306;SDS011;10312;52.434;13.206;2022-12-11T07:53:55;22.90;;;12.77;;
20306;SDS011;10312;52.434;13.206;2022-12-11T07:56:26;24.00;;;12.68;;
20306;SDS011;10312;52.434;13.206;2022-12-11T07:58:53;28.48;;;14.32;;
20306;SDS011;10312;52.434;13.206;2022-12-11T08:01:22;21.85;;;12.52;;
20306;SDS011;10312;52.434;13.206;2022-12-11T08:03:52;21.40;;;12.93;;
20306;SDS011;10312;52.434;13.206;2022-12-11T08:06:23;21.10;;;11.90;;
20306;SDS011;10312;52.434;13.206;2022-12-11T08:08:54;19.60;;;11.38;;
20306;SDS011;10312;52.434;13.206;2022-12-11T08:11:22;18.20;;;11.38;;
20306;SDS011;10312;52.434;13.206;2022-12-11T08:13:49;21.30;;;12.65;;
20306;SDS011;10312;52.434;13.206;2022-12-11T08:16:16;18.10;;;11.70;;
20306;SDS011;10312;52.434;13.206;2022-12-11T08:18:44;20.45;;;11.20;;
20306;SDS011;10312;52.434;13.206;2022-12-11T08:21:15;18.90;;;10.90;;
20306;SDS011;10312;52.434;13.206;2022-12-11T08:23:52;20.13;;;11.40;;
20306;SDS011;10312;52.434;13.206;2022-12-11T08:26:20;21.15;;;11.82;;
20306;SDS011;10312;52.434;13.206;2022-12-11T08:28:54;17.10;;;10.45;;
20306;SDS011;10312;52.434;13.206;2022-12-11T08:31:21;18.30;;;11.10;;
20306;SDS011;10312;52.434;13.206;2022-12-11T08:33:49;18.48;;;10.57;;
20306;SDS011;10312;52.434;13.206;2022-12-11T08:36:17;20.38;;;11.25;;
20306;SDS011;10312;52.434;13.206;2022-12-11T08:38:45;19.55;;;10.55;;
20306;SDS011;10312;52.434;13.206;2022-12-11T08:41:13;17.85;;;10.25;;
20306;SDS011;10312;52.434;13.206;2022-12-11T08:43:44;21.60;;;10.85;;
20306;SDS011;10312;52.434;13.206;2022-12-11T08:46:11;18.15;;;10.60;;
20306;SDS011;10312;52.434;13.206;2022-12-11T08:48:39;20.13;;;10.32;;
20306;SDS011;10312;52.434;13.206;2022-12-11T08:51:09;19.63;;;10.30;;
20306;SDS011;10312;52.434;13.206;2022-12-11T08:53:37;16.45;;;9.27;;
20306;SDS011;10312;52.434;13.206;2022-12-11T08:56:06;16.67;;;10.27;;
20306;SDS011;10312;52.434;13.206;2022-12-11T08:58:36;17.13;;;9.95;;
20306;SDS011;10312;52.434;13.206;2022-12-11T09:01:10;18.25;;;9.95;;
20306;SDS011;10312;52.434;13.206;2022-12-11T09:03:58;16.33;;;9.55;;
20306;SDS011;10312;52.434;13.206;2022-12-11T09:06:25;19.08;;;9.98;;
20306;SDS011;10312;52.434;13.206;2022-12-11T09:08:54;17.25;;;10.07;;
20306;SDS011;10312;52.434;13.206;2022-12-11T09:11:23;19.00;;;10.18;;
20306;SDS011;10312;52.434;13.206;2022-12-11T09:13:51;19.83;;;10.50;;
20306;SDS011;10312;52.434;13.206;2022-12-11T09:16:19;19.33;;;10.85;;
20306;SDS011;10312;52.434;13.206;2022-12-11T09:18:47;17.70;;;10.07;;
20306;SDS011;10312;52.434;13.206;2022-12-11T09:21:16;17.98;;;10.00;;
20306;SDS011;10312;52.434;13.206;2022-12-11T09:23:44;16.48;;;9.02;;
20306;SDS011;10312;52.434;13.206;2022-12-11T09:26:13;19.20;;;10.25;;
20306;SDS011;10312;52.434;13.206;2022-12-11T09:28:42;17.77;;;9.52;;
20306;SDS011;10312;52.434;13.206;2022-12-11T09:31:14;17.77;;;10.20;;
20306;SDS011;10312;52.434;13.206;2022-12-11T09:33:42;18.60;;;9.85;;
20306;SDS011;10312;52.434;13.206;2022-12-11T09:36:10;16.90;;;9.55;;
20306;SDS011;10312;52.434;13.206;2022-12-11T09:44:41;16.65;;;9.43;;
20306;SDS011;10312;52.434;13.206;2022-12-11T09:47:15;17.48;;;10.05;;
20306;SDS011;10312;52.434;13.206;2022-12-11T09:50:11;17.90;;;10.18;;
20306;SDS011;10312;52.434;13.206;2022-12-11T09:52:52;17.15;;;10.63;;
20306;SDS011;10312;52.434;13.206;2022-12-11T09:55:24;18.75;;;10.77;;
20306;SDS011;10312;52.434;13.206;2022-12-11T10:00:48;17.48;;;10.00;;
20306;SDS011;10312;52.434;13.206;2022-12-11T10:05:54;17.40;;;10.40;;
20306;SDS011;10312;52.434;13.206;2022-12-11T10:19:02;16.45;;;9.77;;
20306;SDS011;10312;52.434;13.206;2022-12-11T10:21:35;16.30;;;9.48;;
20306;SDS011;10312;52.434;13.206;2022-12-11T10:24:10;18.02;;;9.98;;
20306;SDS011;10312;52.434;13.206;2022-12-11T10:27:14;18.70;;;10.25;;
20306;SDS011;10312;52.434;13.206;2022-12-11T10:29:46;17.92;;;9.60;;
20306;SDS011;10312;52.434;13.206;2022-12-11T10:32:19;15.88;;;10.10;;
20306;SDS011;10312;52.434;13.206;2022-12-11T10:34:50;16.88;;;10.30;;
20306;SDS011;10312;52.434;13.206;2022-12-11T10:37:25;19.45;;;10.10;;
20306;SDS011;10312;52.434;13.206;2022-12-11T10:39:52;18.25;;;10.05;;
20306;SDS011;10312;52.434;13.206;2022-12-11T10:42:20;19.42;;;10.43;;
20306;SDS011;10312;52.434;13.206;2022-12-11T10:44:55;19.02;;;10.65;;
20306;SDS011;10312;52.434;13.206;2022-12-11T10:47:29;19.00;;;10.30;;
20306;SDS011;10312;52.434;13.206;2022-12-11T10:49:57;16.60;;;9.32;;
20306;SDS011;10312;52.434;13.206;2022-12-11T10:52:32;17.13;;;9.45;;
20306;SDS011;10312;52.434;13.206;2022-12-11T10:55:05;18.83;;;10.02;;
20306;SDS011;10312;52.434;13.206;2022-12-11T10:57:34;17.45;;;10.05;;
20306;SDS011;10312;52.434;13.206;2022-12-11T11:00:03;22.52;;;11.10;;
20306;SDS011;10312;52.434;13.206;2022-12-11T11:02:38;17.30;;;9.90;;
20306;SDS011;10312;52.434;13.206;2022-12-11T11:05:11;17.50;;;9.75;;
20306;SDS011;10312;52.434;13.206;2022-12-11T11:07:42;17.92;;;9.73;;
20306;SDS011;10312;52.434;13.206;2022-12-11T11:12:38;17.55;;;9.13;;
20306;SDS011;10312;52.434;13.206;2022-12-11T11:15:16;15.85;;;8.73;;
20306;SDS011;10312;52.434;13.206;2022-12-11T11:17:54;17.15;;;9.15;;
20306;SDS011;10312;52.434;13.206;2022-12-11T11:20:24;16.50;;;9.38;;
20306;SDS011;10312;52.434;13.206;2022-12-11T11:22:57;18.38;;;9.25;;
20306;SDS011;10312;52.434;13.206;2022-12-11T11:25:30;17.45;;;9.95;;
20306;SDS011;10312;52.434;13.206;2022-12-11T11:27:59;18.02;;;10.30;;
20306;SDS011;10312;52.434;13.206;2022-12-11T11:30:28;17.70;;;9.95;;
20306;SDS011;10312;52.434;13.206;2022-12-11T11:32:57;15.20;;;8.93;;
20306;SDS011;10312;52.434;13.206;2022-12-11T11:35:28;16.70;;;9.43;;
20306;SDS011;10312;52.434;13.206;2022-12-11T11:46:05;18.05;;;9.35;;
20306;SDS011;10312;52.434;13.206;2022-12-11T11:48:44;15.02;;;9.55;;
20306;SDS011;10312;52.434;13.206;2022-12-11T11:51:29;15.00;;;9.30;;
20306;SDS011;10312;52.434;13.206;2022-12-11T11:54:00;15.90;;;9.85;;
20306;SDS011;10312;52.434;13.206;2022-12-11T11:56:33;16.83;;;9.48;;
20306;SDS011;10312;52.434;13.206;2022-12-11T11:59:10;18.45;;;9.70;;
20306;SDS011;10312;52.434;13.206;2022-12-11T12:01:44;16.95;;;9.60;;
20306;SDS011;10312;52.434;13.206;2022-12-11T12:04:11;16.38;;;9.57;;
20306;SDS011;10312;52.434;13.206;2022-12-11T12:06:42;15.65;;;8.88;;
20306;SDS011;10312;52.434;13.206;2022-12-11T12:09:49;17.08;;;9.90;;
20306;SDS011;10312;52.434;13.206;2022-12-11T12:18:07;16.98;;;10.38;;
20306;SDS011;10312;52.434;13.206;2022-12-11T12:24:01;19.15;;;9.93;;
20306;SDS011;10312;52.434;13.206;2022-12-11T12:26:34;20.20;;;10.18;;
20306;SDS011;10312;52.434;13.206;2022-12-11T12:29:17;16.55;;;9.95;;
20306;SDS011;10312;52.434;13.206;2022-12-11T12:32:08;18.02;;;9.90;;
20306;SDS011;10312;52.434;13.206;2022-12-11T12:34:55;15.95;;;9.25;;
20306;SDS011;10312;52.434;13.206;2022-12-11T12:40:31;18.65;;;10.30;;
20306;SDS011;10312;52.434;13.206;2022-12-11T12:48:23;23.92;;;10.32;;
20306;SDS011;10312;52.434;13.206;2022-12-11T12:50:51;19.33;;;9.90;;
20306;SDS011;10312;52.434;13.206;2022-12-11T12:53:19;18.63;;;11.00;;
20306;SDS011;10312;52.434;13.206;2022-12-11T12:55:49;18.25;;;11.43;;
20306;SDS011;10312;52.434;13.206;2022-12-11T12:58:24;19.48;;;11.15;;
20306;SDS011;10312;52.434;13.206;2022-12-11T13:03:55;18.67;;;9.40;;
20306;SDS011;10312;52.434;13.206;2022-12-11T13:06:30;17.92;;;11.05;;
20306;SDS011;10312;52.434;13.206;2022-12-11T13:09:08;17.42;;;10.65;;
20306;SDS011;10312;52.434;13.206;2022-12-11T13:11:46;19.35;;;10.18;;
20306;SDS011;10312;52.434;13.206;2022-12-11T13:16:44;17.48;;;10.70;;
20306;SDS011;10312;52.434;13.206;2022-12-11T13:19:16;19.05;;;11.20;;
20306;SDS011;10312;52.434;13.206;2022-12-11T13:24:46;19.58;;;11.07;;
20306;SDS011;10312;52.434;13.206;2022-12-11T13:32:52;16.80;;;10.25;;
20306;SDS011;10312;52.434;13.206;2022-12-11T13:35:24;18.75;;;10.68;;
20306;SDS011;10312;52.434;13.206;2022-12-11T13:37:51;19.33;;;10.65;;
20306;SDS011;10312;52.434;13.206;2022-12-11T13:40:21;17.92;;;10.52;;
20306;SDS011;10312;52.434;13.206;2022-12-11T13:42:54;18.10;;;10.35;;
20306;SDS011;10312;52.434;13.206;2022-12-11T13:45:28;18.13;;;10.40;;
20306;SDS011;10312;52.434;13.206;2022-12-11T13:48:06;16.75;;;10.27;;
20306;SDS011;10312;52.434;13.206;2022-12-11T13:50:42;18.25;;;11.25;;
20306;SDS011;10312;52.434;13.206;2022-12-11T13:53:14;21.30;;;11.95;;
20306;SDS011;10312;52.434;13.206;2022-12-11T13:55:42;20.58;;;11.38;;
20306;SDS011;10312;52.434;13.206;2022-12-11T13:58:16;16.20;;;9.38;;
20306;SDS011;10312;52.434;13.206;2022-12-11T14:00:52;19.50;;;10.77;;
20306;SDS011;10312;52.434;13.206;2022-12-11T14:03:29;17.40;;;9.95;;
20306;SDS011;10312;52.434;13.206;2022-12-11T14:05:57;18.50;;;10.57;;
20306;SDS011;10312;52.434;13.206;2022-12-11T14:08:26;16.92;;;10.13;;
20306;SDS011;10312;52.434;13.206;2022-12-11T14:10:59;18.95;;;10.52;;
20306;SDS011;10312;52.434;13.206;2022-12-11T14:13:30;22.60;;;11.63;;
20306;SDS011;10312;52.434;13.206;2022-12-11T14:15:59;18.75;;;10.98;;
20306;SDS011;10312;52.434;13.206;2022-12-11T14:18:26;17.40;;;10.57;;
20306;SDS011;10312;52.434;13.206;2022-12-11T14:20:56;19.80;;;11.23;;
20306;SDS011;10312;52.434;13.206;2022-12-11T14:23:25;17.80;;;10.10;;
20306;SDS011;10312;52.434;13.206;2022-12-11T14:25:58;18.70;;;10.60;;
20306;SDS011;10312;52.434;13.206;2022-12-11T14:28:27;19.10;;;10.30;;
20306;SDS011;10312;52.434;13.206;2022-12-11T14:30:57;19.73;;;10.93;;
20306;SDS011;10312;52.434;13.206;2022-12-11T14:33:26;18.48;;;10.82;;
20306;SDS011;10312;52.434;13.206;2022-12-11T14:35:56;20.33;;;10.13;;
20306;SDS011;10312;52.434;13.206;2022-12-11T14:38:59;19.08;;;10.45;;
20306;SDS011;10312;52.434;13.206;2022-12-11T14:41:41;19.75;;;11.70;;
20306;SDS011;10312;52.434;13.206;2022-12-11T14:44:13;19.83;;;11.30;;
20306;SDS011;10312;52.434;13.206;2022-12-11T14:46:45;20.50;;;10.68;;
20306;SDS011;10312;52.434;13.206;2022-12-11T14:49:25;21.20;;;11.25;;
20306;SDS011;10312;52.434;13.206;2022-12-11T14:51:57;28.35;;;16.08;;
20306;SDS011;10312;52.434;13.206;2022-12-11T14:54:59;22.92;;;11.93;;
20306;SDS011;10312;52.434;13.206;2022-12-11T14:57:22;20.60;;;11.80;;
20306;SDS011;10312;52.434;13.206;2022-12-11T14:59:52;18.95;;;10.40;;
20306;SDS011;10312;52.434;13.206;2022-12-11T15:02:21;20.00;;;12.13;;
20306;SDS011;10312;52.434;13.206;2022-12-11T15:04:57;21.63;;;11.45;;
20306;SDS011;10312;52.434;13.206;2022-12-11T15:07:27;22.48;;;12.38;;
20306;SDS011;10312;52.434;13.206;2022-12-11T15:09:54;19.40;;;10.65;;
20306;SDS011;10312;52.434;13.206;2022-12-11T15:12:20;18.38;;;10.32;;
20306;SDS011;10312;52.434;13.206;2022-12-11T15:14:52;20.63;;;10.63;;
20306;SDS011;10312;52.434;13.206;2022-12-11T15:17:20;16.52;;;9.13;;
20306;SDS011;10312;52.434;13.206;2022-12-11T15:19:55;18.08;;;10.75;;
20306;SDS011;10312;52.434;13.206;2022-12-11T15:22:22;20.60;;;10.55;;
20306;SDS011;10312;52.434;13.206;2022-12-11T15:24:53;20.60;;;10.95;;
20306;SDS011;10312;52.434;13.206;2022-12-11T15:27:31;19.80;;;10.60;;
20306;SDS011;10312;52.434;13.206;2022-12-11T15:32:43;16.88;;;10.27;;
20306;SDS011;10312;52.434;13.206;2022-12-11T15:35:23;22.35;;;11.13;;
20306;SDS011;10312;52.434;13.206;2022-12-11T15:37:52;19.40;;;10.93;;
20306;SDS011;10312;52.434;13.206;2022-12-11T15:40:20;17.67;;;10.82;;
20306;SDS011;10312;52.434;13.206;2022-12-11T15:42:47;19.17;;;10.70;;
20306;SDS011;10312;52.434;13.206;2022-12-11T15:45:18;16.85;;;10.70;;